Flight Track Log - Related Links

Times and Time Zones

All times are in EDT time to prevent confusion due to time zone crossing. See the SKW7375 flight status page for this flight to view local times or setup timezone preferences in your user account.

Time Position Orientation Groundspeed Altitude Reporting Facility
EDT Latitude Longitude Course Direction KTS MPH feet Rate Location/Type
Fri 09:49:00 PM 47.4262 -93.7955 13° North  Level Estimated
Fri 09:50:00 PM 47.5397 -93.7571 13° North  Level Estimated
Fri 09:51:00 PM 47.6532 -93.7186 13° North  Level Estimated
Fri 09:52:00 PM 47.7667 -93.6799 13° North  Level Estimated
Fri 09:53:00 PM 47.8801 -93.6410 13° North  Level Estimated
Fri 09:54:00 PM 47.9936 -93.6019 13° North  Level Estimated
Fri 09:55:00 PM 48.1070 -93.5627 13° North  Level Estimated
Fri 09:56:00 PM 48.2204 -93.5232 13° North  Level Estimated
Fri 09:57:00 PM 48.3338 -93.4837 13° North  Level Estimated
Fri 09:58:00 PM 48.4472 -93.4439 13° North  Level Estimated
Fri 09:59:00 PM 48.5606 -93.4039 13° North  Level Estimated
Fri 10:00:00 PM 48.5656 -93.4022 13° North  Level Estimated
Fri 10:01:00 PM 48.5656 -93.4022 33° Northeast  Level Estimated
Fri 10:02:00 PM 48.5656 -93.4022 33° Northeast  Level Estimated
Fri 10:03:00 PM 48.5656 -93.4022 33° Northeast  Level Estimated
Fri 10:04:00 PM 48.5656 -93.4022 33° Northeast  Level Estimated
Fri 10:05:00 PM 48.5656 -93.4022 33° Northeast  Level Estimated
Fri 10:06:00 PM 48.5656 -93.4022 33° Northeast  Level Estimated
Fri 10:07:00 PM 48.5656 -93.4022 33° Northeast  Level Estimated
Fri 10:08:00 PM 48.5656 -93.4022 33° Northeast  Level Estimated
Fri 10:09:00 PM 48.5656 -93.4022 33° Northeast  Level Estimated

Login

Don't have an account? Register now (free) for customized features, flight alerts, and more!